Time;durP1;ratioP1;P1;durP2;ratioP2;P2;SDS_P1;SDS_P2;PMS_P1;PMS_P2;Temp;Humidity;BMP_temperature;BMP_pressure;BME280_temperature;BME280_humidity;BME280_pressure;Samples;Min_cycle;Max_cycle;Signal;HPM_P1;HPM_P2
2022/09/05 00:01:55;;;;;;;5.25;2.20;;;13.80;99.90;;;;;;5054769;28;20070;-73
2022/09/05 00:04:45;;;;;;;2.70;1.92;;;13.80;99.90;;;;;;5053914;28;20037;-74
2022/09/05 00:07:38;;;;;;;3.03;1.67;;;13.80;99.90;;;;;;5053833;28;20113;-74
2022/09/05 00:10:22;;;;;;;4.03;1.50;;;13.70;99.90;;;;;;5053611;28;20024;-74
2022/09/05 00:12:51;;;;;;;2.50;1.70;;;13.60;99.90;;;;;;5054582;28;20373;-74
2022/09/05 00:15:33;;;;;;;3.00;1.90;;;13.60;99.90;;;;;;5053924;28;20548;-74
2022/09/05 00:18:25;;;;;;;2.50;1.58;;;13.60;99.90;;;;;;5054254;28;20581;-74
2022/09/05 00:20:56;;;;;;;2.35;1.50;;;13.60;99.90;;;;;;5051421;28;20091;-74
2022/09/05 00:23:31;;;;;;;4.25;1.80;;;13.60;99.90;;;;;;5053978;28;20111;-74
2022/09/05 00:26:17;;;;;;;3.30;2.00;;;13.50;99.90;;;;;;5053768;28;20415;-74
2022/09/05 00:29:07;;;;;;;3.17;2.10;;;13.50;99.90;;;;;;5053743;28;20481;-74
2022/09/05 00:31:39;;;;;;;3.70;1.63;;;13.50;99.90;;;;;;5053722;28;20104;-74
2022/09/05 00:34:31;;;;;;;5.90;1.90;;;13.50;99.90;;;;;;5053597;28;20048;-74
2022/09/05 00:36:57;;;;;;;2.72;1.90;;;13.50;99.90;;;;;;5053595;28;20485;-74
2022/09/05 00:39:33;;;;;;;3.22;1.73;;;13.40;99.90;;;;;;5053530;28;20087;-74
2022/09/05 00:42:06;;;;;;;5.35;2.28;;;13.40;99.90;;;;;;5054362;28;20032;-74
2022/09/05 00:44:35;;;;;;;4.00;1.80;;;13.30;99.90;;;;;;5053647;28;20045;-74
2022/09/05 00:47:11;;;;;;;6.07;1.80;;;13.30;99.90;;;;;;5053479;28;20056;-74
2022/09/05 00:49:50;;;;;;;2.80;1.90;;;13.30;99.90;;;;;;5053723;28;20013;-74
2022/09/05 00:52:27;;;;;;;3.42;1.52;;;13.20;99.90;;;;;;5053200;28;20385;-74
2022/09/05 00:55:35;;;;;;;2.70;1.67;;;13.20;99.90;;;;;;5053571;28;20047;-74
2022/09/05 00:58:25;;;;;;;3.47;1.40;;;13.10;99.90;;;;;;5053367;28;20551;-74
2022/09/05 01:00:54;;;;;;;4.75;1.50;;;13.10;99.90;;;;;;5053243;28;20021;-74
2022/09/05 01:04:02;;;;;;;3.97;1.77;;;13.00;99.90;;;;;;5052313;28;20043;-74
2022/09/05 01:06:58;;;;;;;3.72;1.70;;;13.00;99.90;;;;;;5043583;28;20490;-74
2022/09/05 01:10:02;;;;;;;3.78;1.63;;;12.90;99.90;;;;;;5048810;28;20540;-74
2022/09/05 01:13:05;;;;;;;6.28;2.00;;;12.90;99.90;;;;;;5053145;28;20022;-74
2022/09/05 01:16:04;;;;;;;3.38;2.05;;;12.90;99.90;;;;;;5051600;28;20143;-74
2022/09/05 01:18:50;;;;;;;5.18;2.17;;;12.90;99.90;;;;;;5058478;22;20481;-80
2022/09/05 01:21:28;;;;;;;2.88;2.05;;;13.00;99.90;;;;;;5048456;28;20024;-80
2022/09/05 01:24:28;;;;;;;2.60;1.60;;;12.90;99.90;;;;;;5053690;28;20127;-80
2022/09/05 01:27:34;;;;;;;3.10;2.00;;;12.90;99.90;;;;;;5052881;28;20120;-80
2022/09/05 01:30:18;;;;;;;3.25;1.67;;;12.80;99.90;;;;;;5052826;28;20021;-80
2022/09/05 01:33:27;;;;;;;2.75;1.60;;;12.80;99.90;;;;;;5068214;28;20029;-80
2022/09/05 01:36:18;;;;;;;4.65;2.05;;;12.70;99.90;;;;;;5048535;28;20016;-80
2022/09/05 01:38:50;;;;;;;3.85;1.92;;;12.70;99.90;;;;;;5043906;28;20021;-80
2022/09/05 01:41:22;;;;;;;2.35;1.65;;;12.70;99.90;;;;;;5050405;28;20044;-80
2022/09/05 01:44:19;;;;;;;3.72;1.63;;;12.60;99.90;;;;;;5049346;28;20118;-80
2022/09/05 01:47:26;;;;;;;6.32;2.08;;;12.60;99.90;;;;;;5049618;28;20082;-80
2022/09/05 01:49:58;;;;;;;2.88;1.65;;;12.50;99.90;;;;;;5041845;28;20388;-80
2022/09/05 01:52:32;;;;;;;2.53;1.60;;;12.50;99.90;;;;;;5068128;28;20381;-79
2022/09/05 01:55:14;;;;;;;5.88;2.00;;;12.40;99.90;;;;;;5051265;28;20092;-80
2022/09/05 01:57:46;;;;;;;5.43;2.03;;;12.40;99.90;;;;;;5049764;28;20021;-80
2022/09/05 02:00:45;;;;;;;3.53;1.95;;;12.40;99.90;;;;;;5052010;28;20021;-80
2022/09/05 02:03:23;;;;;;;4.53;2.28;;;12.40;99.90;;;;;;5048265;28;20060;-80
2022/09/05 02:06:20;;;;;;;2.28;1.55;;;12.40;99.90;;;;;;5052649;28;20500;-80
2022/09/05 02:08:49;;;;;;;2.45;1.83;;;12.40;99.90;;;;;;5033536;28;20044;-80
2022/09/05 02:11:15;;;;;;;5.15;1.70;;;12.40;99.90;;;;;;5052710;28;20025;-80
2022/09/05 02:14:03;;;;;;;3.08;1.73;;;12.40;99.90;;;;;;5053535;28;20025;-80
2022/09/05 02:16:38;;;;;;;3.38;1.90;;;12.40;99.90;;;;;;5055215;28;20037;-80
2022/09/05 02:19:11;;;;;;;3.05;2.00;;;12.30;99.90;;;;;;5054509;28;20037;-80
2022/09/05 02:21:59;;;;;;;3.90;2.08;;;12.20;99.90;;;;;;5053077;28;20039;-80
2022/09/05 02:24:36;;;;;;;2.95;1.92;;;12.30;99.90;;;;;;5046409;28;20074;-80
2022/09/05 02:27:04;;;;;;;5.13;2.17;;;12.30;99.90;;;;;;5055522;28;20044;-80
2022/09/05 02:30:08;;;;;;;4.43;2.45;;;12.30;99.90;;;;;;5053555;28;20032;-80
2022/09/05 02:32:51;;;;;;;2.97;2.30;;;12.30;99.90;;;;;;5053548;28;20036;-80
2022/09/05 02:35:26;;;;;;;3.70;2.25;;;12.20;99.90;;;;;;5050449;28;20021;-80
2022/09/05 02:38:16;;;;;;;4.30;1.80;;;12.20;99.90;;;;;;5055842;28;20036;-80
2022/09/05 02:40:47;;;;;;;2.50;1.63;;;12.10;99.90;;;;;;5070092;28;20032;-80
2022/09/05 02:43:25;;;;;;;3.13;2.00;;;12.10;99.90;;;;;;5054841;28;20025;-80
2022/09/05 02:46:00;;;;;;;3.55;1.70;;;12.10;99.90;;;;;;5053383;28;20025;-80
2022/09/05 02:48:48;;;;;;;4.53;1.90;;;12.10;99.90;;;;;;5052349;28;20029;-80
2022/09/05 02:51:34;;;;;;;2.80;1.65;;;12.10;99.90;;;;;;5051330;28;20023;-80
2022/09/05 02:54:13;;;;;;;2.42;1.60;;;12.10;99.90;;;;;;5057346;28;20063;-80
2022/09/05 02:57:09;;;;;;;2.58;2.00;;;12.00;99.90;;;;;;5052481;28;20029;-79
2022/09/05 02:59:46;;;;;;;2.88;1.55;;;12.00;99.90;;;;;;5053584;28;20094;-80
2022/09/05 03:02:35;;;;;;;2.60;1.73;;;12.00;99.90;;;;;;5048587;28;20032;-79
2022/09/05 03:05:07;;;;;;;2.30;1.70;;;12.00;99.90;;;;;;5051255;28;20048;-80
2022/09/05 03:07:54;;;;;;;2.85;1.83;;;12.00;99.90;;;;;;5053559;28;20095;-80
2022/09/05 03:10:40;;;;;;;2.60;1.73;;;11.90;99.90;;;;;;5055094;28;20013;-80
2022/09/05 03:13:40;;;;;;;5.10;1.70;;;11.80;99.90;;;;;;5055275;28;20036;-80
2022/09/05 03:16:34;;;;;;;5.32;1.90;;;11.80;99.90;;;;;;5055167;28;20032;-80
2022/09/05 03:19:25;;;;;;;3.78;1.70;;;11.80;99.90;;;;;;5053398;28;20060;-80
2022/09/05 03:22:08;;;;;;;2.85;1.55;;;11.70;99.90;;;;;;5054140;28;20021;-79
2022/09/05 03:25:11;;;;;;;2.22;1.65;;;11.70;99.90;;;;;;5054370;28;20029;-79
2022/09/05 03:28:02;;;;;;;4.50;1.85;;;11.60;99.90;;;;;;5070944;28;20484;-80
2022/09/05 03:31:02;;;;;;;2.92;1.92;;;11.60;99.90;;;;;;5055377;28;20021;-80
2022/09/05 03:33:35;;;;;;;4.53;1.90;;;11.60;99.90;;;;;;5054508;28;20021;-80
2022/09/05 03:36:13;;;;;;;2.95;1.55;;;11.60;99.90;;;;;;5053424;28;20055;-79
2022/09/05 03:38:48;;;;;;;3.38;1.85;;;11.60;99.90;;;;;;5050718;28;20051;-80
2022/09/05 03:41:53;;;;;;;4.18;1.73;;;11.60;99.90;;;;;;5051474;28;20401;-79
2022/09/05 03:44:40;;;;;;;3.50;2.00;;;11.60;99.90;;;;;;5052996;28;20092;-79
2022/09/05 03:47:29;;;;;;;9.23;2.38;;;11.60;99.90;;;;;;5068481;28;20055;-79
2022/09/05 03:49:55;;;;;;;3.67;1.90;;;11.60;99.90;;;;;;5052409;28;20013;-79
2022/09/05 03:52:47;;;;;;;3.72;2.20;;;11.50;99.90;;;;;;5051765;28;20361;-79
2022/09/05 03:55:49;;;;;;;3.35;2.10;;;11.50;99.90;;;;;;5059070;28;20021;-79
2022/09/05 03:58:47;;;;;;;3.95;1.90;;;11.50;99.90;;;;;;5054334;28;20108;-80
2022/09/05 04:01:57;;;;;;;4.40;2.53;;;11.50;99.90;;;;;;5038859;28;20037;-80
2022/09/05 04:04:27;;;;;;;3.08;2.25;;;11.40;99.90;;;;;;5041363;28;20047;-79
2022/09/05 04:07:04;;;;;;;3.83;2.30;;;11.40;99.90;;;;;;5053975;28;20056;-79
2022/09/05 04:09:44;;;;;;;3.67;2.20;;;11.30;99.90;;;;;;5053701;28;20867;-79
2022/09/05 04:12:28;;;;;;;5.00;2.33;;;11.40;99.90;;;;;;5051306;28;20391;-79
2022/09/05 04:15:16;;;;;;;2.97;2.00;;;11.40;99.90;;;;;;5054443;28;20033;-80
2022/09/05 04:17:45;;;;;;;2.33;1.90;;;11.30;99.90;;;;;;5054198;28;20036;-80
2022/09/05 04:20:16;;;;;;;2.70;2.00;;;11.30;99.90;;;;;;5052245;28;20098;-78
2022/09/05 04:23:34;;;;;;;4.05;1.95;;;11.30;99.90;;;;;;5064591;28;20025;-78
2022/09/05 04:26:20;;;;;;;4.93;2.13;;;11.30;99.90;;;;;;5007189;28;20439;-78
2022/09/05 04:29:34;;;;;;;4.05;1.85;;;11.30;99.90;;;;;;5041098;28;20431;-78
2022/09/05 04:32:15;;;;;;;4.20;1.80;;;11.30;99.90;;;;;;4986428;28;20030;-78
2022/09/05 04:35:01;;;;;;;5.32;2.03;;;11.20;99.90;;;;;;5068854;28;20025;-78
2022/09/05 04:37:48;;;;;;;2.97;2.20;;;11.30;99.90;;;;;;5053330;28;20370;-78
2022/09/05 04:40:36;;;;;;;5.43;2.45;;;11.30;99.90;;;;;;5053589;28;20028;-78
2022/09/05 04:43:14;;;;;;;4.10;2.10;;;11.30;99.90;;;;;;5068699;28;20021;-78
2022/09/05 04:45:54;;;;;;;4.32;2.40;;;11.30;99.90;;;;;;5052952;28;20021;-78
2022/09/05 04:48:31;;;;;;;6.65;3.00;;;11.30;99.90;;;;;;5053038;28;20028;-78
2022/09/05 04:51:09;;;;;;;5.78;2.88;;;11.20;99.90;;;;;;5052818;28;20029;-80
2022/09/05 04:54:08;;;;;;;6.07;2.75;;;11.20;99.90;;;;;;5053268;28;20538;-80
2022/09/05 04:56:39;;;;;;;3.42;2.40;;;11.20;99.90;;;;;;5051612;28;20050;-80
2022/09/05 04:59:15;;;;;;;5.40;2.30;;;11.20;99.90;;;;;;5053202;28;20074;-80
2022/09/05 05:01:55;;;;;;;4.25;2.20;;;11.20;99.90;;;;;;5053275;28;20556;-82
2022/09/05 05:04:23;;;;;;;6.45;2.75;;;11.20;99.90;;;;;;5052826;28;20473;-82
2022/09/05 05:06:54;;;;;;;3.40;2.30;;;11.20;99.90;;;;;;5053026;28;20036;-82
2022/09/05 05:09:51;;;;;;;3.63;2.30;;;11.30;99.90;;;;;;5052394;28;20465;-82
2022/09/05 05:12:23;;;;;;;4.88;1.98;;;11.30;99.90;;;;;;5049806;28;20040;-82
2022/09/05 05:15:02;;;;;;;4.22;2.50;;;11.30;99.90;;;;;;5050595;28;20032;-82
2022/09/05 05:17:34;;;;;;;3.38;2.38;;;11.30;99.90;;;;;;5052928;28;20067;-82
2022/09/05 05:20:19;;;;;;;5.22;2.65;;;11.30;99.90;;;;;;5051467;28;20045;-82
2022/09/05 05:23:08;;;;;;;3.88;2.40;;;11.30;99.90;;;;;;5047245;28;20029;-82
2022/09/05 05:25:53;;;;;;;4.72;2.67;;;11.30;99.90;;;;;;5050513;28;20425;-82
2022/09/05 05:28:42;;;;;;;3.38;2.40;;;11.40;99.90;;;;;;5050398;28;20094;-82
2022/09/05 05:31:18;;;;;;;3.80;2.38;;;11.40;99.90;;;;;;5050154;28;20049;-82
2022/09/05 05:33:48;;;;;;;6.20;2.30;;;11.40;99.90;;;;;;5047663;28;20025;-81
2022/09/05 05:36:26;;;;;;;3.90;1.98;;;11.40;99.90;;;;;;5050174;28;20029;-81
2022/09/05 05:39:14;;;;;;;4.95;2.13;;;11.50;99.90;;;;;;5050716;28;20389;-82
2022/09/05 05:41:54;;;;;;;4.35;2.42;;;11.50;99.90;;;;;;5049945;28;20223;-82
2022/09/05 05:44:28;;;;;;;3.08;2.00;;;11.50;99.90;;;;;;5049205;28;20029;-82
2022/09/05 05:47:02;;;;;;;3.97;2.40;;;11.60;99.90;;;;;;5052796;28;20029;-82
2022/09/05 05:49:50;;;;;;;4.88;2.80;;;11.60;99.90;;;;;;5054827;28;20029;-81
2022/09/05 05:52:41;;;;;;;3.92;2.60;;;11.70;99.90;;;;;;5048871;28;20037;-82
2022/09/05 05:55:15;;;;;;;4.68;2.60;;;11.80;99.90;;;;;;5054735;28;20025;-82
2022/09/05 05:58:01;;;;;;;5.15;2.50;;;11.80;99.90;;;;;;5051783;28;20029;-81
2022/09/05 06:00:36;;;;;;;4.20;2.70;;;11.90;99.90;;;;;;5053792;28;20021;-81
2022/09/05 06:03:32;;;;;;;3.75;2.55;;;11.90;99.90;;;;;;5053222;28;20021;-82
2022/09/05 06:06:22;;;;;;;3.33;2.30;;;11.90;99.90;;;;;;5051881;28;20438;-81
2022/09/05 06:08:50;;;;;;;3.58;2.38;;;11.90;99.90;;;;;;5053097;28;20044;-81
2022/09/05 06:11:34;;;;;;;4.70;3.00;;;12.00;99.90;;;;;;5054273;28;20021;-81
2022/09/05 06:14:13;;;;;;;4.20;2.55;;;12.00;99.90;;;;;;5054214;28;20021;-81
2022/09/05 06:17:35;;;;;;;8.00;3.35;;;12.10;99.90;;;;;;5052384;28;20104;-81
2022/09/05 06:20:09;;;;;;;3.65;2.63;;;12.20;99.90;;;;;;4987495;28;20041;-81
2022/09/05 06:22:43;;;;;;;7.65;2.85;;;12.30;99.90;;;;;;5051158;28;20025;-81
2022/09/05 06:25:49;;;;;;;3.35;2.40;;;12.40;99.90;;;;;;5053609;28;20032;-81
2022/09/05 06:28:20;;;;;;;3.90;2.20;;;12.50;99.90;;;;;;5055097;28;20477;-81
2022/09/05 06:31:28;;;;;;;3.92;2.45;;;12.60;99.90;;;;;;5055935;28;20024;-82
2022/09/05 06:33:59;;;;;;;4.47;3.10;;;12.70;99.90;;;;;;5055850;28;20520;-81
2022/09/05 06:36:25;;;;;;;;;;;12.80;99.90;;;;;;5056083;28;20033;-81
2022/09/05 06:39:09;;;;;;;4.88;3.03;;;12.90;99.90;;;;;;5055708;28;19905;-81
2022/09/05 06:41:40;;;;;;;8.73;3.47;;;13.00;99.90;;;;;;5055591;28;20484;-81
2022/09/05 06:44:30;;;;;;;4.32;3.10;;;13.10;99.90;;;;;;5055525;28;20083;-81
2022/09/05 06:47:05;;;;;;;4.93;2.90;;;13.10;99.90;;;;;;5070956;28;20025;-81
2022/09/05 06:49:34;;;;;;;4.95;3.00;;;13.20;99.90;;;;;;5055304;28;20021;-81
2022/09/05 06:52:18;;;;;;;4.38;3.13;;;13.30;99.90;;;;;;5053464;28;20053;-81
2022/09/05 06:55:09;;;;;;;6.32;3.13;;;13.40;99.90;;;;;;5052878;28;20416;-81
2022/09/05 06:57:53;;;;;;;6.50;3.00;;;13.50;99.90;;;;;;5053753;28;20044;-81
2022/09/05 07:00:28;;;;;;;6.63;3.60;;;13.60;99.90;;;;;;5055125;28;20029;-81
2022/09/05 07:03:17;;;;;;;4.00;2.90;;;13.70;99.90;;;;;;5053757;28;20023;-81
2022/09/05 07:06:05;;;;;;;4.72;3.03;;;13.80;99.90;;;;;;5053044;28;20024;-81
2022/09/05 07:09:03;;;;;;;5.57;3.30;;;13.80;99.90;;;;;;5051493;28;20070;-81
2022/09/05 07:11:50;;;;;;;5.63;3.20;;;13.90;99.90;;;;;;5047511;28;20029;-81
2022/09/05 07:14:21;;;;;;;4.55;3.00;;;13.90;99.90;;;;;;5051849;28;20021;-81
2022/09/05 07:17:17;;;;;;;5.68;3.42;;;13.90;99.90;;;;;;5054809;28;20444;-81
2022/09/05 07:19:48;;;;;;;5.35;4.15;;;14.00;99.90;;;;;;5049978;28;20048;-81
2022/09/05 07:22:32;;;;;;;4.88;3.47;;;14.10;99.90;;;;;;5054909;28;20557;-81
2022/09/05 07:25:10;;;;;;;5.00;3.60;;;14.20;99.90;;;;;;5055889;28;20469;-81
2022/09/05 07:27:42;;;;;;;4.97;3.40;;;14.30;99.90;;;;;;5055006;28;20032;-81
2022/09/05 07:30:09;;;;;;;6.90;3.33;;;14.30;99.90;;;;;;5054745;28;20023;-81
2022/09/05 07:32:48;;;;;;;5.35;3.97;;;14.40;99.90;;;;;;5058113;22;20033;-75
2022/09/05 07:35:28;;;;;;;6.55;3.55;;;14.50;99.90;;;;;;5034859;28;20017;-75
2022/09/05 07:38:21;;;;;;;6.70;3.47;;;14.60;99.90;;;;;;5033476;28;20018;-75
2022/09/05 07:40:56;;;;;;;5.45;3.42;;;14.70;99.90;;;;;;5035384;28;20103;-75
2022/09/05 07:43:38;;;;;;;5.00;3.85;;;14.80;99.90;;;;;;5034633;28;20523;-75
2022/09/05 07:46:11;;;;;;;;;;;14.90;99.90;;;;;;5035648;28;20026;-75
2022/09/05 07:48:47;;;;;;;5.38;3.53;;;15.00;99.90;;;;;;5034832;28;19937;-75
2022/09/05 07:51:22;;;;;;;5.53;3.60;;;15.10;99.90;;;;;;5034871;28;20021;-75
2022/09/05 07:53:48;;;;;;;4.07;3.25;;;15.20;99.90;;;;;;5033302;28;20029;-75
2022/09/05 07:56:34;;;;;;;4.15;2.80;;;15.20;99.90;;;;;;5034559;28;20055;-75
2022/09/05 07:59:07;;;;;;;4.25;3.00;;;15.30;99.90;;;;;;5034112;28;20388;-76
2022/09/05 08:01:36;;;;;;;4.72;3.78;;;15.40;99.90;;;;;;5034402;28;20084;-75
2022/09/05 08:04:02;;;;;;;3.63;3.00;;;15.50;99.90;;;;;;5032945;28;20030;-75
2022/09/05 08:06:27;;;;;;;5.63;3.28;;;15.60;99.90;;;;;;5033259;28;20030;-75
2022/09/05 08:09:05;;;;;;;5.07;3.78;;;15.70;99.90;;;;;;5034120;28;20031;-76
2022/09/05 08:11:34;;;;;;;4.50;3.47;;;15.80;99.90;;;;;;5033813;28;20025;-75
2022/09/05 08:14:12;;;;;;;6.47;3.58;;;16.00;99.90;;;;;;5034136;28;20029;-75
2022/09/05 08:16:38;;;;;;;6.45;3.45;;;16.10;99.90;;;;;;5032868;28;20025;-75
2022/09/05 08:19:41;;;;;;;5.07;2.95;;;16.20;99.90;;;;;;5034031;28;20066;-75
2022/09/05 08:22:13;;;;;;;5.00;2.80;;;16.40;99.90;;;;;;5033913;28;20032;-75
2022/09/05 08:24:46;;;;;;;4.35;2.95;;;16.50;99.90;;;;;;5033981;28;20491;-76
2022/09/05 08:27:19;;;;;;;3.38;2.45;;;16.60;99.90;;;;;;5034481;28;20025;-75
2022/09/05 08:29:52;;;;;;;4.32;2.95;;;16.80;99.90;;;;;;5034419;28;20071;-75
2022/09/05 08:32:48;;;;;;;4.35;3.00;;;16.90;99.90;;;;;;5034260;28;20045;-75
2022/09/05 08:35:39;;;;;;;4.90;3.00;;;17.00;99.90;;;;;;5033814;28;20040;-75
2022/09/05 08:38:06;;;;;;;6.45;2.70;;;17.20;99.90;;;;;;5033209;28;20033;-75
2022/09/05 08:40:38;;;;;;;3.63;2.20;;;17.30;99.90;;;;;;5032854;28;20478;-74
2022/09/05 08:43:22;;;;;;;;;;;17.40;99.90;;;;;;5034609;28;20108;-75
2022/09/05 08:45:56;;;;;;;3.70;2.20;;;17.50;99.90;;;;;;5033618;28;19912;-75
2022/09/05 08:48:51;;;;;;;5.68;2.92;;;17.60;99.90;;;;;;5033760;28;20560;-75
2022/09/05 08:51:23;;;;;;;5.03;2.38;;;17.80;99.90;;;;;;5032346;28;20025;-74
2022/09/05 08:54:12;;;;;;;3.53;2.35;;;17.90;99.90;;;;;;5032314;28;20052;-75
2022/09/05 08:56:49;;;;;;;4.40;2.38;;;18.10;99.90;;;;;;5033467;28;20021;-75
2022/09/05 08:59:23;;;;;;;5.57;2.63;;;18.20;99.90;;;;;;5033419;28;20045;-74
2022/09/05 09:02:15;;;;;;;3.40;2.40;;;18.40;99.90;;;;;;5033445;28;20087;-74
2022/09/05 09:05:13;;;;;;;3.35;2.50;;;18.50;99.90;;;;;;5032755;28;20043;-74
2022/09/05 09:07:45;;;;;;;2.67;2.15;;;18.50;99.90;;;;;;5032510;28;20026;-74
2022/09/05 09:10:20;;;;;;;4.72;2.28;;;18.60;99.90;;;;;;5033623;28;20387;-74
2022/09/05 09:13:27;;;;;;;5.22;2.55;;;18.70;99.90;;;;;;5030983;28;20105;-74
2022/09/05 09:15:58;;;;;;;3.92;2.58;;;18.90;99.90;;;;;;5031234;28;20396;-74
2022/09/05 09:19:00;;;;;;;2.95;2.58;;;19.00;99.90;;;;;;5031361;28;20501;-75
2022/09/05 09:21:45;;;;;;;4.03;2.70;;;19.10;99.90;;;;;;5032869;28;20374;-75
2022/09/05 09:24:16;;;;;;;4.63;2.33;;;19.20;99.90;;;;;;5037590;28;20026;-74
2022/09/05 09:26:53;;;;;;;4.18;2.28;;;19.30;99.90;;;;;;5036242;28;20031;-74
2022/09/05 09:29:22;;;;;;;3.90;2.50;;;19.40;99.90;;;;;;5037454;28;20025;-74
2022/09/05 09:32:03;;;;;;;3.60;2.35;;;19.40;99.90;;;;;;5037511;28;20018;-74
2022/09/05 09:34:33;;;;;;;;;;;19.50;99.90;;;;;;5037813;28;20045;-74
2022/09/05 09:37:12;;;;;;;3.83;2.47;;;19.50;99.90;;;;;;5037114;28;19905;-75
2022/09/05 09:40:02;;;;;;;4.95;2.40;;;19.50;99.90;;;;;;5037261;28;20480;-74
2022/09/05 09:43:00;;;;;;;3.77;2.53;;;19.60;99.90;;;;;;5036739;28;20362;-75
2022/09/05 09:45:41;;;;;;;7.03;3.05;;;19.70;99.90;;;;;;5036326;28;20096;-74
2022/09/05 09:48:24;;;;;;;3.65;2.80;;;19.80;99.90;;;;;;5036258;28;20091;-74
2022/09/05 09:51:12;;;;;;;4.05;2.45;;;20.00;99.90;;;;;;5035267;28;20496;-74
2022/09/05 09:54:02;;;;;;;3.45;2.50;;;20.20;99.90;;;;;;5036751;28;20025;-74
2022/09/05 09:57:09;;;;;;;3.08;2.03;;;20.30;99.90;;;;;;5036730;28;20105;-74
2022/09/05 09:59:53;;;;;;;3.58;2.20;;;20.40;99.90;;;;;;5036649;28;20029;-74
2022/09/05 10:02:48;;;;;;;3.38;2.25;;;20.30;99.90;;;;;;5036863;28;20075;-74
2022/09/05 10:05:42;;;;;;;6.07;2.55;;;20.40;99.90;;;;;;5035815;28;20428;-75
2022/09/05 10:08:45;;;;;;;4.78;2.78;;;20.50;99.90;;;;;;5036422;28;20028;-74
2022/09/05 10:11:34;;;;;;;5.03;2.67;;;20.50;99.90;;;;;;5036772;28;20025;-74
2022/09/05 10:14:29;;;;;;;3.15;2.50;;;20.70;99.90;;;;;;5036425;28;20017;-71
2022/09/05 10:17:19;;;;;;;4.57;2.50;;;20.90;99.90;;;;;;5036427;28;20021;-74
2022/09/05 10:20:01;;;;;;;3.20;2.30;;;21.10;99.90;;;;;;5036294;28;20500;-74
2022/09/05 10:22:27;;;;;;;3.08;2.22;;;21.20;99.90;;;;;;5036366;28;20052;-73
2022/09/05 10:25:06;;;;;;;4.22;2.53;;;21.20;99.90;;;;;;5036346;28;20026;-72
2022/09/05 10:28:04;;;;;;;3.92;2.40;;;21.30;99.90;;;;;;5036308;28;20097;-72
2022/09/05 10:30:48;;;;;;;5.28;2.78;;;21.30;99.90;;;;;;5035977;28;20032;-72
2022/09/05 10:33:59;;;;;;;3.42;2.17;;;21.30;99.90;;;;;;5036116;28;20048;-72
2022/09/05 10:36:30;;;;;;;3.20;2.15;;;21.40;99.90;;;;;;5035014;28;20604;-71
2022/09/05 10:39:16;;;;;;;;;;;21.70;99.90;;;;;;5036594;28;20055;-72
2022/09/05 10:41:57;;;;;;;4.25;2.00;;;21.80;99.90;;;;;;5036259;28;20351;-71
2022/09/05 10:44:34;;;;;;;;;;;22.00;98.70;;;;;;5036576;28;20022;-71
2022/09/05 10:47:05;;;;;;;3.83;2.40;;;22.10;99.10;;;;;;5036274;28;19909;-71
2022/09/05 10:49:39;;;;;;;4.68;2.70;;;22.30;98.40;;;;;;5035803;28;20075;-71
2022/09/05 10:52:09;;;;;;;4.55;2.60;;;22.50;99.20;;;;;;5036104;28;20474;-71
2022/09/05 10:54:53;;;;;;;6.50;2.70;;;22.60;98.00;;;;;;5036034;28;20040;-71
2022/09/05 10:57:37;;;;;;;3.53;2.33;;;22.80;98.30;;;;;;5036208;28;20030;-71
2022/09/05 11:00:32;;;;;;;4.22;2.40;;;22.90;96.60;;;;;;5035865;28;20017;-71
2022/09/05 11:03:00;;;;;;;3.60;2.60;;;23.10;97.40;;;;;;5031728;28;20029;-72
2022/09/05 11:05:27;;;;;;;4.68;2.60;;;23.20;95.70;;;;;;5035732;28;20040;-73
2022/09/05 11:08:09;;;;;;;5.22;2.53;;;23.20;95.50;;;;;;5036127;28;20021;-73
2022/09/05 11:10:35;;;;;;;3.60;2.58;;;23.20;95.60;;;;;;5035681;28;20071;-73
2022/09/05 11:13:53;;;;;;;3.25;2.65;;;23.30;94.70;;;;;;5034139;28;20114;-73
2022/09/05 11:16:26;;;;;;;3.33;2.38;;;23.40;95.60;;;;;;5023176;28;20037;-73
2022/09/05 11:19:29;;;;;;;3.42;3.03;;;23.60;96.40;;;;;;5035352;28;20033;-71
2022/09/05 11:22:08;;;;;;;3.63;2.60;;;23.90;94.50;;;;;;5023660;28;20073;-71
2022/09/05 11:24:57;;;;;;;3.45;2.53;;;23.90;94.30;;;;;;5035189;28;20055;-71
2022/09/05 11:27:46;;;;;;;5.68;2.70;;;24.00;93.40;;;;;;5035909;28;20339;-70
2022/09/05 11:30:15;;;;;;;3.50;2.58;;;24.10;93.40;;;;;;5035687;28;20033;-71
2022/09/05 11:33:05;;;;;;;3.38;2.45;;;24.20;94.10;;;;;;5035135;28;20029;-71
2022/09/05 11:35:37;;;;;;;4.75;2.60;;;24.30;95.10;;;;;;5033888;28;20036;-71
2022/09/05 11:38:09;;;;;;;3.25;2.20;;;24.40;92.50;;;;;;5034904;28;20025;-71
2022/09/05 11:40:35;;;;;;;4.32;2.70;;;24.40;92.10;;;;;;5035309;28;20052;-71
2022/09/05 11:43:32;;;;;;;4.50;2.53;;;24.50;92.70;;;;;;5036097;28;20466;-71
2022/09/05 11:46:00;;;;;;;4.55;2.50;;;24.60;94.00;;;;;;5034228;28;20025;-71
2022/09/05 11:48:44;;;;;;;3.25;2.33;;;24.70;92.60;;;;;;5035109;28;20363;-71
2022/09/05 11:51:47;;;;;;;4.22;2.80;;;24.90;92.80;;;;;;5034432;28;20523;-71
2022/09/05 11:54:44;;;;;;;2.92;2.42;;;25.00;93.40;;;;;;5034820;28;20105;-71
2022/09/05 11:57:28;;;;;;;3.22;2.40;;;25.10;95.00;;;;;;5034793;28;20037;-71
2022/09/05 12:00:11;;;;;;;3.88;1.98;;;25.20;90.50;;;;;;5034260;28;20025;-71
2022/09/05 12:03:13;;;;;;;3.72;2.05;;;25.30;90.10;;;;;;5034434;28;20031;-72
2022/09/05 12:06:03;;;;;;;2.70;1.70;;;25.30;92.30;;;;;;5007890;28;20021;-71
2022/09/05 12:08:48;;;;;;;4.05;1.60;;;25.40;87.50;;;;;;5053506;28;20057;-72
2022/09/05 12:11:38;;;;;;;2.90;1.65;;;25.40;86.30;;;;;;5044550;28;20025;-71
2022/09/05 12:14:36;;;;;;;1.98;1.50;;;25.50;87.90;;;;;;5034401;28;20040;-71
2022/09/05 12:17:32;;;;;;;3.70;1.80;;;25.60;85.90;;;;;;5034031;28;20029;-71
2022/09/05 12:20:17;;;;;;;2.70;1.80;;;25.80;87.10;;;;;;5034060;28;20040;-71
2022/09/05 12:22:55;;;;;;;;;;;26.00;85.30;;;;;;5033518;28;20033;-71
2022/09/05 12:25:27;;;;;;;;;;;26.10;83.60;;;;;;5033500;28;20272;-70
2022/09/05 12:27:54;;;;;;;;;;;26.20;82.80;;;;;;5033986;28;19905;-71
2022/09/05 12:30:29;;;;;;;;;;;26.30;88.40;;;;;;5033728;28;19916;-71
2022/09/05 12:33:13;;;;;;;;;;;26.40;85.20;;;;;;5032554;28;20144;-71
2022/09/05 12:35:45;;;;;;;;;;;26.50;84.70;;;;;;5032478;28;19996;-71
2022/09/05 12:38:31;;;;;;;;;;;26.70;84.90;;;;;;5033476;28;20448;-70
2022/09/05 12:41:03;;;;;;;;;;;26.80;86.60;;;;;;5032992;28;20330;-70
2022/09/05 12:43:29;;;;;;;;;;;26.90;81.00;;;;;;5033830;28;19912;-71
2022/09/05 12:45:57;;;;;;;;;;;27.00;80.50;;;;;;5034204;28;20432;-70
2022/09/05 12:48:32;;;;;;;;;;;27.10;80.60;;;;;;5034149;28;19991;-70
2022/09/05 12:51:08;;;;;;;;;;;27.20;76.90;;;;;;5034498;28;20051;-71
2022/09/05 12:53:42;;;;;;;;;;;27.20;83.60;;;;;;5032537;28;19959;-73
2022/09/05 12:56:14;;;;;;;;;;;27.30;78.20;;;;;;5034187;28;19962;-71
2022/09/05 12:58:42;;;;;;;;;;;27.30;77.80;;;;;;5033390;28;19962;-72
2022/09/05 13:01:16;;;;;;;;;;;27.40;74.90;;;;;;5034747;28;19933;-72
2022/09/05 13:03:46;;;;;;;;;;;27.40;72.10;;;;;;5033616;28;19915;-71
2022/09/05 13:06:18;;;;;;;;;;;27.40;74.40;;;;;;5033867;28;19905;-70
2022/09/05 13:08:46;;;;;;;;;;;27.40;71.60;;;;;;5033521;28;19905;-70
2022/09/05 13:11:14;;;;;;;;;;;27.50;71.30;;;;;;5033928;28;19905;-71
2022/09/05 13:13:51;;;;;;;;;;;27.50;68.20;;;;;;5033184;28;19913;-71
2022/09/05 13:16:18;;;;;;;;;;;27.30;68.50;;;;;;5023762;28;20010;-70
2022/09/05 13:18:45;;;;;;;;;;;27.10;69.40;;;;;;5021213;28;20047;-71
2022/09/05 13:21:16;;;;;;;;;;;26.90;66.70;;;;;;5026572;28;19978;-71
2022/09/05 13:23:46;;;;;;;;;;;26.70;63.10;;;;;;5023333;28;20365;-71
2022/09/05 13:26:11;;;;;;;;;;;26.40;64.90;;;;;;5022215;28;20047;-70
2022/09/05 13:28:50;;;;;;;;;;;26.20;65.70;;;;;;5026408;28;19944;-73
2022/09/05 13:31:35;;;;;;;;;;;26.10;66.60;;;;;;5026699;28;19916;-73
2022/09/05 13:34:02;;;;;;;;;;;26.10;67.10;;;;;;5025627;28;19924;-72
2022/09/05 13:36:29;;;;;;;;;;;26.30;66.80;;;;;;5024086;28;19909;-72
2022/09/05 13:39:02;;;;;;;;;;;26.40;66.30;;;;;;5021512;28;20266;-74
2022/09/05 13:41:35;;;;;;;;;;;26.50;67.20;;;;;;5022155;28;19920;-73
2022/09/05 13:44:06;;;;;;;;;;;26.40;66.10;;;;;;5018494;28;20260;-74
2022/09/05 13:46:43;;;;;;;;;;;26.50;66.30;;;;;;5025489;28;20025;-71
2022/09/05 13:49:11;;;;;;;;;;;26.50;64.30;;;;;;5029899;28;19909;-71
2022/09/05 13:51:43;;;;;;;;;;;26.40;66.80;;;;;;5032704;28;19909;-71
2022/09/05 13:54:27;;;;;;;;;;;26.40;69.00;;;;;;5033086;28;19905;-71
2022/09/05 13:57:19;;;;;;;;;;;26.20;65.20;;;;;;5033149;28;20275;-72
2022/09/05 14:00:03;;;;;;;;;;;26.20;66.10;;;;;;5033307;28;19912;-72
2022/09/05 14:02:43;;;;;;;;;;;26.10;67.10;;;;;;5033004;28;19947;-72
2022/09/05 14:05:36;;;;;;;;;;;26.00;67.50;;;;;;5033342;28;19935;-72
2022/09/05 14:08:17;;;;;;;;;;;25.90;66.80;;;;;;5033275;28;20003;-75
2022/09/05 14:10:49;;;;;;;;;;;25.80;66.10;;;;;;5035992;28;19931;-75
2022/09/05 14:13:24;;;;;;;;;;;25.80;68.30;;;;;;5036953;28;19952;-74
2022/09/05 14:16:00;;;;;;;;;;;25.70;69.80;;;;;;5036750;28;20016;-71
2022/09/05 14:18:28;;;;;;;;;;;25.60;72.30;;;;;;5035170;28;19905;-71